createdAt,value
2022-11-07T00:01:29.284Z,87
2022-11-07T00:11:30.017Z,87
2022-11-07T01:11:33.396Z,88
2022-11-07T01:41:35.648Z,88
2022-11-07T01:51:35.896Z,88
2022-11-07T02:01:37.075Z,88
2022-11-07T02:11:37.602Z,88
2022-11-07T02:21:38.262Z,88
2022-11-07T02:31:39.082Z,88
2022-11-07T02:41:39.630Z,89
2022-11-07T02:51:40.519Z,89
2022-11-07T03:01:40.867Z,89
2022-11-07T03:11:41.587Z,89
2022-11-07T03:21:42.272Z,89
2022-11-07T03:31:43.021Z,90
2022-11-07T03:41:43.952Z,90
2022-11-07T03:51:44.606Z,91
2022-11-07T04:01:44.847Z,91
2022-11-07T04:11:44.955Z,91
2022-11-07T04:21:45.282Z,91
2022-11-07T04:31:46.055Z,91
2022-11-07T04:41:46.432Z,92
2022-11-07T04:51:46.868Z,92
2022-11-07T05:01:47.708Z,92
2022-11-07T05:11:47.864Z,92
2022-11-07T05:21:48.429Z,92
2022-11-07T05:31:48.703Z,92
2022-11-07T05:41:48.982Z,92
2022-11-07T05:51:49.853Z,91
2022-11-07T06:11:50.739Z,91
2022-11-07T06:21:51.177Z,90
2022-11-07T06:31:52.147Z,90
2022-11-07T06:41:52.630Z,89
2022-11-07T06:51:53.751Z,88
2022-11-07T07:01:54.195Z,88
2022-11-07T07:11:54.902Z,88
2022-11-07T07:21:55.228Z,88
2022-11-07T07:31:55.573Z,88
2022-11-07T07:41:56.164Z,88
2022-11-07T07:51:56.619Z,87
2022-11-07T08:01:57.651Z,87
2022-11-07T08:11:57.360Z,87
2022-11-07T08:21:58.441Z,86
2022-11-07T08:31:59.390Z,86
2022-11-07T08:42:00.295Z,85
2022-11-07T08:52:00.823Z,85
2022-11-07T09:02:39.303Z,85
2022-11-07T09:12:01.937Z,84
2022-11-07T09:22:02.445Z,83
2022-11-07T09:32:17.445Z,83
2022-11-07T09:42:03.896Z,84
2022-11-07T09:52:04.369Z,84
2022-11-07T10:02:05.229Z,84
2022-11-07T10:12:05.588Z,84
2022-11-07T10:22:05.854Z,84
2022-11-07T10:32:06.512Z,84
2022-11-07T10:42:07.369Z,86
2022-11-07T10:52:08.333Z,88
2022-11-07T11:02:08.749Z,91
2022-11-07T11:12:09.301Z,92
2022-11-07T11:22:09.780Z,92
2022-11-07T11:32:10.101Z,92
2022-11-07T11:42:10.525Z,91
2022-11-07T11:52:10.683Z,89
2022-11-07T12:02:11.110Z,88
2022-11-07T12:12:12.122Z,87
2022-11-07T12:22:12.918Z,86
2022-11-07T12:32:14.009Z,84
2022-11-07T12:42:14.883Z,83
2022-11-07T12:52:15.938Z,83
2022-11-07T13:02:16.469Z,82
2022-11-07T13:12:17.092Z,82
2022-11-07T13:22:17.331Z,82
2022-11-07T13:32:17.944Z,82
2022-11-07T13:42:18.164Z,82
2022-11-07T13:52:19.227Z,81
2022-11-07T14:02:19.945Z,80
2022-11-07T14:12:20.705Z,80
2022-11-07T14:22:21.431Z,80
2022-11-07T14:32:21.680Z,81
2022-11-07T14:42:22.751Z,82
2022-11-07T14:52:23.052Z,82
2022-11-07T15:02:24.046Z,82
2022-11-07T15:12:24.780Z,82
2022-11-07T15:22:25.432Z,82
2022-11-07T15:32:26.111Z,82
2022-11-07T15:42:26.416Z,83
2022-11-07T15:52:27.246Z,83
2022-11-07T16:02:28.292Z,83
2022-11-07T16:12:28.991Z,83
2022-11-07T16:22:30.021Z,83
2022-11-07T16:32:30.503Z,83
2022-11-07T16:52:31.714Z,83
2022-11-07T17:12:33.354Z,83
2022-11-07T17:22:33.557Z,83
2022-11-07T17:32:34.309Z,82
2022-11-07T17:42:37.928Z,82
2022-11-07T17:52:34.903Z,82
2022-11-07T18:12:35.754Z,83
2022-11-07T18:52:38.244Z,82
2022-11-07T19:12:39.052Z,82
2022-11-07T19:22:39.429Z,83
2022-11-07T19:32:39.720Z,82
2022-11-07T19:42:40.395Z,83
2022-11-07T20:12:42.032Z,83
2022-11-07T20:22:46.085Z,83
2022-11-07T20:32:42.792Z,83
2022-11-07T20:52:43.917Z,83
2022-11-07T21:12:45.170Z,83
2022-11-07T21:22:45.824Z,84
2022-11-07T21:32:46.402Z,84
2022-11-07T21:42:47.022Z,85
2022-11-07T21:52:47.681Z,85
2022-11-07T22:12:49.248Z,86
2022-11-07T22:22:49.355Z,86
2022-11-07T22:32:50.036Z,86
2022-11-07T22:42:50.746Z,87
2022-11-07T22:52:50.880Z,87
2022-11-07T23:02:51.713Z,87
2022-11-07T23:12:51.761Z,88
2022-11-07T23:22:52.032Z,88
2022-11-07T23:23:13.977Z,88
2022-11-07T23:32:58.470Z,88
2022-11-07T23:52:59.517Z,90
